createdAt,value
2022-09-16T00:01:13.933Z,97201.75
2022-09-16T00:03:48.372Z,97198.41
2022-09-16T00:06:21.241Z,97212.53
2022-09-16T00:08:49.872Z,97216.13
2022-09-16T00:11:19.324Z,97219.31
2022-09-16T00:13:48.352Z,97224.50
2022-09-16T00:16:19.961Z,97225.19
2022-09-16T00:18:49.876Z,97219.56
2022-09-16T00:21:18.166Z,97228.94
2022-09-16T00:23:47.040Z,97221.81
2022-09-16T00:26:15.733Z,97222.16
2022-09-16T00:28:44.289Z,97225.75
2022-09-16T00:31:12.544Z,97224.00
2022-09-16T00:33:40.763Z,97232.09
2022-09-16T00:36:13.230Z,97232.19
2022-09-16T00:38:42.075Z,97229.00
2022-09-16T00:41:17.589Z,97227.00
2022-09-16T00:43:55.380Z,97230.16
2022-09-16T00:46:29.141Z,97227.00
2022-09-16T00:48:58.324Z,97230.91
2022-09-16T00:51:28.514Z,97228.31
2022-09-16T00:54:00.378Z,97229.50
2022-09-16T00:56:30.654Z,97232.50
2022-09-16T00:59:03.570Z,97231.09
2022-09-16T01:01:32.238Z,97228.38
2022-09-16T01:04:03.186Z,97230.72
2022-09-16T01:06:33.814Z,97242.06
2022-09-16T01:09:02.427Z,97243.09
2022-09-16T01:11:30.588Z,97245.84
2022-09-16T01:14:19.642Z,97239.19
2022-09-16T01:16:52.074Z,97239.66
2022-09-16T01:19:34.577Z,97243.06
2022-09-16T01:22:14.859Z,97245.03
2022-09-16T01:24:50.754Z,97236.66
2022-09-16T01:27:38.370Z,97232.44
2022-09-16T01:33:18.008Z,97236.41
2022-09-16T01:35:56.269Z,97226.78
2022-09-16T01:38:34.893Z,97234.34
2022-09-16T01:41:09.149Z,97230.41
2022-09-16T01:43:46.290Z,97225.16
2022-09-16T01:46:20.946Z,97233.63
2022-09-16T01:48:55.558Z,97233.94
2022-09-16T01:51:26.664Z,97228.06
2022-09-16T01:54:04.196Z,97228.03
2022-09-16T01:56:37.108Z,97231.28
2022-09-16T01:59:09.530Z,97230.31
2022-09-16T02:01:41.969Z,97224.06
2022-09-16T02:04:15.213Z,97223.03
2022-09-16T02:06:46.496Z,97218.56
2022-09-16T02:09:16.571Z,97219.13
2022-09-16T02:11:47.449Z,97228.09
2022-09-16T02:14:18.394Z,97237.59
2022-09-16T02:16:49.467Z,97230.66
2022-09-16T02:19:22.296Z,97238.69
2022-09-16T02:21:51.856Z,97239.31
2022-09-16T02:24:22.307Z,97241.78
2022-09-16T02:26:54.367Z,97240.66
2022-09-16T02:29:24.915Z,97250.03
2022-09-16T02:31:55.922Z,97250.50
2022-09-16T02:34:27.094Z,97259.44
2022-09-16T02:36:58.626Z,97257.03
2022-09-16T02:39:30.203Z,97247.63
2022-09-16T02:41:58.715Z,97245.06
2022-09-16T02:54:19.191Z,97254.09
2022-09-16T02:57:44.407Z,97247.34
2022-09-16T03:00:51.995Z,97245.50
2022-09-16T03:04:00.088Z,97236.94
2022-09-16T03:07:16.643Z,97240.44
2022-09-16T03:20:29.906Z,97243.38
2022-09-16T03:24:13.362Z,97257.00
2022-09-16T03:43:35.707Z,97249.72
2022-09-16T03:47:38.089Z,97240.50
2022-09-16T04:11:06.071Z,97239.47
2022-09-16T04:11:58.047Z,97241.53
2022-09-16T04:22:03.507Z,97237.28
2022-09-16T04:33:13.480Z,97235.75
2022-09-16T04:55:18.440Z,97233.03
2022-09-16T05:02:45.062Z,97234.81
2022-09-16T05:06:09.636Z,97225.31
2022-09-16T05:09:38.741Z,97235.72
2022-09-16T05:12:55.718Z,97238.47
2022-09-16T05:15:35.849Z,97245.09
2022-09-16T05:18:22.563Z,97240.09
2022-09-16T05:21:30.639Z,97226.22
2022-09-16T05:24:42.854Z,97249.28
2022-09-16T05:27:19.256Z,97239.88
2022-09-16T05:30:01.767Z,97243.16
2022-09-16T05:33:25.502Z,97248.91
2022-09-16T05:39:22.672Z,97246.75
2022-09-16T05:42:28.355Z,97255.06
2022-09-16T05:49:29.229Z,97256.69
2022-09-16T06:00:41.400Z,97253.59
2022-09-16T06:04:20.973Z,97249.16
2022-09-16T06:16:27.256Z,97248.38
2022-09-16T06:27:01.885Z,97252.81
2022-09-16T06:30:36.082Z,97248.00
2022-09-16T06:39:07.997Z,97255.22
2022-09-16T06:42:01.476Z,97247.25
2022-09-16T06:45:07.034Z,97248.59
2022-09-16T06:49:47.196Z,97247.38
2022-09-16T06:56:48.255Z,97253.09
2022-09-16T06:59:20.668Z,97252.31
2022-09-16T07:01:48.746Z,97256.97
2022-09-16T07:04:17.658Z,97252.84
2022-09-16T07:09:35.013Z,97253.91
2022-09-16T07:12:05.300Z,97260.31
2022-09-16T07:14:33.677Z,97258.16
2022-09-16T07:17:03.219Z,97266.94
2022-09-16T07:19:31.749Z,97267.44
2022-09-16T07:21:59.849Z,97270.47
2022-09-16T07:24:27.996Z,97272.41
2022-09-16T07:26:56.366Z,97270.38
2022-09-16T07:29:26.079Z,97272.78
2022-09-16T07:31:54.582Z,97281.22
2022-09-16T07:34:23.291Z,97272.59
2022-09-16T07:36:51.521Z,97279.34
2022-09-16T07:39:21.245Z,97278.13
2022-09-16T07:41:50.215Z,97278.50
2022-09-16T07:44:20.560Z,97277.44
2022-09-16T07:46:51.443Z,97280.22
2022-09-16T07:49:21.093Z,97279.13
2022-09-16T07:51:49.489Z,97282.09
2022-09-16T07:54:20.176Z,97289.94
2022-09-16T07:56:48.836Z,97285.59
2022-09-16T07:59:19.355Z,97278.63
2022-09-16T08:01:51.212Z,97279.44
2022-09-16T08:04:20.989Z,97291.66
2022-09-16T08:06:49.699Z,97284.50
2022-09-16T08:12:10.931Z,97283.84
2022-09-16T08:14:39.467Z,97268.34
2022-09-16T08:17:09.141Z,97283.69
2022-09-16T08:19:38.563Z,97275.31
2022-09-16T08:22:06.761Z,97278.91
2022-09-16T08:24:35.390Z,97272.81
2022-09-16T08:27:03.487Z,97276.94
2022-09-16T08:29:31.689Z,97266.16
2022-09-16T08:32:00.140Z,97278.16
2022-09-16T08:34:29.741Z,97277.56
2022-09-16T08:36:57.919Z,97276.22
2022-09-16T08:39:26.284Z,97282.53
2022-09-16T08:42:25.533Z,97284.72
2022-09-16T08:45:00.427Z,97285.81
2022-09-16T08:47:38.125Z,97289.38
2022-09-16T08:50:16.519Z,97286.59
2022-09-16T08:52:54.032Z,97273.19
2022-09-16T08:55:31.770Z,97268.63
2022-09-16T08:58:03.714Z,97277.44
2022-09-16T09:00:32.320Z,97280.22
2022-09-16T09:03:08.800Z,97271.34
2022-09-16T09:05:46.640Z,97278.63
2022-09-16T09:08:23.151Z,97282.16
2022-09-16T09:10:53.833Z,97270.47
2022-09-16T09:13:58.978Z,97280.78
2022-09-16T09:16:36.789Z,97273.38
2022-09-16T09:19:15.384Z,97276.22
2022-09-16T09:21:50.204Z,97280.66
2022-09-16T09:24:31.843Z,97285.03
2022-09-16T09:27:04.947Z,97269.19
2022-09-16T09:29:42.804Z,97273.19
2022-09-16T09:32:19.772Z,97273.31
2022-09-16T09:35:00.075Z,97273.09
2022-09-16T09:37:45.070Z,97283.16
2022-09-16T09:40:17.117Z,97273.53
2022-09-16T09:42:50.075Z,97283.00
2022-09-16T09:45:22.995Z,97274.97
2022-09-16T09:47:54.165Z,97282.53
2022-09-16T09:50:26.624Z,97275.03
2022-09-16T09:53:02.793Z,97276.09
2022-09-16T09:55:34.607Z,97272.66
2022-09-16T09:58:17.235Z,97274.81
2022-09-16T10:00:45.773Z,97264.59
2022-09-16T10:03:16.712Z,97261.69
2022-09-16T10:05:45.964Z,97247.66
2022-09-16T10:08:20.497Z,97259.81
2022-09-16T10:10:51.558Z,97242.03
2022-09-16T10:13:20.733Z,97242.78
2022-09-16T10:15:53.295Z,97242.47
2022-09-16T10:18:27.142Z,97254.81
2022-09-16T10:21:02.312Z,97247.13
2022-09-16T10:23:32.494Z,97245.47
2022-09-16T10:26:09.673Z,97248.44
2022-09-16T10:28:38.175Z,97242.91
2022-09-16T10:31:08.003Z,97253.94
2022-09-16T10:33:38.389Z,97249.09
2022-09-16T10:36:08.911Z,97249.72
2022-09-16T10:38:41.234Z,97247.09
2022-09-16T10:41:15.552Z,97246.50
2022-09-16T10:43:49.212Z,97249.28
2022-09-16T10:46:18.731Z,97249.06
2022-09-16T10:48:47.443Z,97251.97
2022-09-16T10:51:23.766Z,97254.16
2022-09-16T10:53:57.964Z,97254.41
2022-09-16T10:56:29.544Z,97250.34
2022-09-16T10:59:06.240Z,97245.69
2022-09-16T11:01:45.062Z,97245.88
2022-09-16T11:04:41.487Z,97246.59
2022-09-16T11:07:18.154Z,97231.13
2022-09-16T11:09:54.084Z,97226.53
2022-09-16T11:12:37.786Z,97237.44
2022-09-16T11:15:14.247Z,97229.06
2022-09-16T11:17:53.416Z,97217.44
2022-09-16T11:20:42.095Z,97228.59
2022-09-16T11:23:19.022Z,97225.13
2022-09-16T11:25:52.898Z,97226.63
2022-09-16T11:28:45.380Z,97225.97
2022-09-16T11:31:22.173Z,97215.81
2022-09-16T11:33:56.767Z,97210.50
2022-09-16T11:36:37.546Z,97207.56
2022-09-16T11:39:16.670Z,97201.56
2022-09-16T11:41:50.350Z,97195.38
2022-09-16T11:44:33.923Z,97193.22
2022-09-16T11:47:16.284Z,97192.22
2022-09-16T11:49:53.573Z,97191.03
2022-09-16T11:52:34.512Z,97203.53
2022-09-16T11:55:31.160Z,97199.50
2022-09-16T11:58:05.186Z,97188.28
2022-09-16T12:00:35.330Z,97177.94
2022-09-16T12:03:07.518Z,97195.69
2022-09-16T12:05:42.159Z,97181.69
2022-09-16T12:08:14.233Z,97184.88
2022-09-16T12:10:47.030Z,97177.44
2022-09-16T12:13:20.123Z,97185.66
2022-09-16T12:15:50.850Z,97184.50
2022-09-16T12:18:19.963Z,97189.59
2022-09-16T12:20:51.937Z,97185.06
2022-09-16T12:23:22.599Z,97178.31
2022-09-16T12:26:02.078Z,97173.31
2022-09-16T12:28:35.058Z,97165.78
2022-09-16T12:31:08.494Z,97169.44
2022-09-16T12:33:41.847Z,97185.72
2022-09-16T12:36:12.723Z,97180.63
2022-09-16T12:38:41.377Z,97182.47
2022-09-16T12:41:31.578Z,97173.13
2022-09-16T12:44:34.407Z,97162.22
2022-09-16T12:47:23.814Z,97165.34
2022-09-16T12:50:40.083Z,97172.53
2022-09-16T12:53:41.918Z,97167.59
2022-09-16T12:56:12.594Z,97176.00
2022-09-16T12:59:20.039Z,97167.72
2022-09-16T13:01:51.752Z,97169.19
2022-09-16T13:04:22.564Z,97175.78
2022-09-16T13:06:52.936Z,97173.97
2022-09-16T13:09:23.672Z,97162.81
2022-09-16T13:14:47.794Z,97180.53
2022-09-16T13:17:29.351Z,97177.34
2022-09-16T13:19:57.766Z,97168.16
2022-09-16T13:22:30.522Z,97175.72
2022-09-16T13:25:06.843Z,97168.56
2022-09-16T13:27:37.368Z,97170.16
2022-09-16T13:30:18.285Z,97171.72
2022-09-16T13:33:00.311Z,97174.13
2022-09-16T13:35:43.005Z,97178.91
2022-09-16T13:38:41.630Z,97172.97
2022-09-16T13:41:12.318Z,97174.91
2022-09-16T13:43:53.141Z,97186.50
2022-09-16T13:46:31.466Z,97188.84
2022-09-16T13:49:13.160Z,97184.06
2022-09-16T13:51:44.726Z,97186.00
2022-09-16T13:54:23.279Z,97182.09
2022-09-16T13:57:00.934Z,97179.72
2022-09-16T13:59:42.549Z,97168.56
2022-09-16T14:02:16.763Z,97166.97
2022-09-16T14:05:00.161Z,97175.69
2022-09-16T14:07:38.203Z,97188.91
2022-09-16T14:10:11.612Z,97190.50
2022-09-16T14:12:47.411Z,97180.09
2022-09-16T14:15:16.384Z,97180.25
2022-09-16T14:17:51.010Z,97181.66
2022-09-16T14:20:22.692Z,97170.41
2022-09-16T14:23:01.553Z,97169.72
2022-09-16T14:25:32.415Z,97163.38
2022-09-16T14:28:11.036Z,97171.69
2022-09-16T14:30:46.713Z,97169.31
2022-09-16T14:33:16.257Z,97162.94
2022-09-16T14:35:48.411Z,97167.75
2022-09-16T14:38:43.816Z,97169.38
2022-09-16T14:41:08.371Z,97165.38
2022-09-16T14:43:38.666Z,97159.38
2022-09-16T14:46:08.630Z,97156.59
2022-09-16T14:48:39.625Z,97156.56
2022-09-16T14:51:22.285Z,97159.38
2022-09-16T14:54:13.777Z,97158.19
2022-09-16T14:56:42.083Z,97151.38
2022-09-16T14:59:12.496Z,97149.03
2022-09-16T15:01:41.382Z,97152.59
2022-09-16T15:04:12.376Z,97154.19
2022-09-16T15:06:45.183Z,97149.00
2022-09-16T15:09:18.904Z,97148.97
2022-09-16T15:11:56.515Z,97150.56
2022-09-16T15:14:25.037Z,97147.69
2022-09-16T15:16:56.985Z,97140.19
2022-09-16T15:19:27.054Z,97147.66
2022-09-16T15:21:57.487Z,97146.06
2022-09-16T15:24:31.265Z,97145.22
2022-09-16T15:26:59.861Z,97145.81
2022-09-16T15:29:34.066Z,97135.97
2022-09-16T15:32:19.643Z,97142.34
2022-09-16T15:34:48.137Z,97134.31
2022-09-16T15:37:35.961Z,97135.97
2022-09-16T15:40:23.473Z,97126.41
2022-09-16T15:43:04.019Z,97133.16
2022-09-16T15:45:32.993Z,97132.13
2022-09-16T15:48:03.891Z,97132.09
2022-09-16T15:50:40.129Z,97126.69
2022-09-16T15:53:12.951Z,97120.66
2022-09-16T15:55:44.289Z,97124.22
2022-09-16T15:58:14.922Z,97124.19
2022-09-16T16:01:02.684Z,97131.50
2022-09-16T16:03:33.906Z,97128.94
2022-09-16T16:06:05.123Z,97129.91
2022-09-16T16:08:43.291Z,97132.84
2022-09-16T16:11:13.817Z,97133.59
2022-09-16T16:13:42.498Z,97130.69
2022-09-16T16:16:11.625Z,97131.84
2022-09-16T16:18:40.179Z,97138.13
2022-09-16T16:21:09.535Z,97141.28
2022-09-16T16:23:38.199Z,97134.84
2022-09-16T16:26:10.024Z,97126.97
2022-09-16T16:28:39.162Z,97129.31
2022-09-16T16:31:13.743Z,97124.53
2022-09-16T16:33:45.259Z,97128.19
2022-09-16T16:36:15.306Z,97116.16
2022-09-16T16:38:43.950Z,97115.63
2022-09-16T16:41:20.603Z,97107.66
2022-09-16T16:43:49.079Z,97110.34
2022-09-16T16:46:18.406Z,97111.66
2022-09-16T16:48:47.564Z,97115.38
2022-09-16T16:51:16.314Z,97115.34
2022-09-16T16:53:48.871Z,97120.91
2022-09-16T16:56:19.058Z,97120.00
2022-09-16T16:58:47.603Z,97110.88
2022-09-16T17:01:17.563Z,97114.53
2022-09-16T17:03:49.314Z,97115.53
2022-09-16T17:06:18.570Z,97116.22
2022-09-16T17:08:47.304Z,97129.25
2022-09-16T17:11:19.891Z,97128.75
2022-09-16T17:13:51.036Z,97125.25
2022-09-16T17:16:21.481Z,97125.59
2022-09-16T17:18:50.262Z,97126.38
2022-09-16T17:21:20.433Z,97134.16
2022-09-16T17:23:49.208Z,97131.81
2022-09-16T17:26:19.541Z,97132.00
2022-09-16T17:28:51.713Z,97136.88
2022-09-16T17:31:22.495Z,97123.06
2022-09-16T17:33:51.474Z,97129.91
2022-09-16T17:36:22.491Z,97129.03
2022-09-16T17:38:56.561Z,97135.41
2022-09-16T17:41:27.976Z,97138.50
2022-09-16T17:43:57.800Z,97142.16
2022-09-16T17:46:28.977Z,97141.41
2022-09-16T17:49:00.978Z,97136.75
2022-09-16T17:51:31.689Z,97140.09
2022-09-16T17:54:00.349Z,97144.97
2022-09-16T17:56:30.263Z,97141.59
2022-09-16T17:58:58.708Z,97142.81
2022-09-16T18:01:28.556Z,97152.59
2022-09-16T18:03:57.538Z,97147.78
2022-09-16T18:06:28.604Z,97154.16
2022-09-16T18:08:57.437Z,97158.31
2022-09-16T18:11:26.023Z,97155.84
2022-09-16T18:13:57.633Z,97151.50
2022-09-16T18:16:27.295Z,97159.13
2022-09-16T18:18:57.777Z,97159.31
2022-09-16T18:21:27.214Z,97158.75
2022-09-16T18:23:57.508Z,97155.63
2022-09-16T18:26:27.020Z,97162.41
2022-09-16T18:29:17.921Z,97160.56
2022-09-16T18:31:47.957Z,97162.28
2022-09-16T18:34:17.393Z,97160.50
2022-09-16T18:36:45.930Z,97163.16
2022-09-16T18:39:15.397Z,97170.97
2022-09-16T18:41:45.308Z,97162.63
2022-09-16T18:44:16.722Z,97159.78
2022-09-16T18:46:45.173Z,97165.69
2022-09-16T18:49:15.005Z,97177.00
2022-09-16T18:51:49.812Z,97177.94
2022-09-16T18:54:24.886Z,97180.69
2022-09-16T18:56:55.914Z,97180.00
2022-09-16T18:59:28.710Z,97177.09
2022-09-16T19:01:59.501Z,97174.69
2022-09-16T19:04:29.093Z,97189.53
2022-09-16T19:06:59.350Z,97184.50
2022-09-16T19:09:27.719Z,97177.81
2022-09-16T19:11:56.309Z,97180.91
2022-09-16T19:14:27.588Z,97189.53
2022-09-16T19:16:56.223Z,97189.97
2022-09-16T19:19:24.625Z,97189.19
2022-09-16T19:21:52.806Z,97189.75
2022-09-16T19:24:23.098Z,97187.28
2022-09-16T19:26:53.059Z,97194.84
2022-09-16T19:29:21.977Z,97190.91
2022-09-16T19:31:53.071Z,97190.56
2022-09-16T19:34:22.240Z,97184.66
2022-09-16T19:36:50.763Z,97179.16
2022-09-16T19:39:19.084Z,97174.09
2022-09-16T19:41:47.290Z,97176.06
2022-09-16T19:44:17.243Z,97169.78
2022-09-16T19:46:49.193Z,97174.09
2022-09-16T19:49:20.932Z,97176.69
2022-09-16T19:51:49.888Z,97178.59
2022-09-16T19:54:18.511Z,97184.06
2022-09-16T19:56:50.765Z,97180.94
2022-09-16T19:59:20.139Z,97182.72
2022-09-16T20:01:48.819Z,97185.75
2022-09-16T20:04:19.825Z,97181.38
2022-09-16T20:06:49.900Z,97177.31
2022-09-16T20:09:18.405Z,97182.44
2022-09-16T20:11:47.812Z,97171.53
2022-09-16T20:14:18.831Z,97183.41
2022-09-16T20:16:47.625Z,97176.75
2022-09-16T20:19:16.954Z,97181.28
2022-09-16T20:21:45.499Z,97182.50
2022-09-16T20:24:18.460Z,97184.84
2022-09-16T20:26:47.551Z,97183.94
2022-09-16T20:29:17.348Z,97189.72
2022-09-16T20:31:46.136Z,97197.03
2022-09-16T20:34:16.273Z,97198.91
2022-09-16T20:36:46.037Z,97203.22
2022-09-16T20:39:15.923Z,97198.66
2022-09-16T20:41:45.812Z,97196.75
2022-09-16T20:44:15.811Z,97197.66
2022-09-16T20:46:44.674Z,97204.94
2022-09-16T20:49:16.212Z,97199.25
2022-09-16T20:51:45.271Z,97207.09
2022-09-16T20:54:16.235Z,97202.91
2022-09-16T20:56:45.900Z,97198.63
2022-09-16T20:59:16.491Z,97194.06
2022-09-16T21:01:44.953Z,97193.41
2022-09-16T21:04:14.889Z,97197.97
2022-09-16T21:06:43.453Z,97199.13
2022-09-16T21:09:13.617Z,97202.34
2022-09-16T21:11:45.247Z,97201.09
2022-09-16T21:14:16.426Z,97189.28
2022-09-16T21:16:47.227Z,97192.00
2022-09-16T21:19:16.769Z,97195.34
2022-09-16T21:21:46.535Z,97191.69
2022-09-16T21:24:15.078Z,97187.13
2022-09-16T21:26:46.224Z,97197.50
2022-09-16T21:29:21.021Z,97199.63
2022-09-16T21:31:50.157Z,97200.63
2022-09-16T21:34:20.203Z,97196.38
2022-09-16T21:36:49.180Z,97199.31
2022-09-16T21:39:19.637Z,97200.44
2022-09-16T21:41:49.823Z,97202.25
2022-09-16T21:44:18.880Z,97201.78
2022-09-16T21:46:47.897Z,97202.69
2022-09-16T21:49:22.717Z,97209.56
2022-09-16T21:51:52.513Z,97211.09
2022-09-16T21:54:21.665Z,97208.25
2022-09-16T21:56:51.843Z,97213.50
2022-09-16T21:59:20.993Z,97218.38
2022-09-16T22:01:50.159Z,97219.13
2022-09-16T22:04:19.933Z,97220.34
2022-09-16T22:06:49.373Z,97216.78
2022-09-16T22:09:17.822Z,97220.50
2022-09-16T22:11:46.145Z,97234.53
2022-09-16T22:14:16.330Z,97221.28
2022-09-16T22:16:44.533Z,97218.06
2022-09-16T22:19:14.706Z,97227.31
2022-09-16T22:21:44.520Z,97226.91
2022-09-16T22:24:13.011Z,97229.47
2022-09-16T22:26:41.481Z,97229.00
2022-09-16T22:29:09.841Z,97232.13
2022-09-16T22:31:41.528Z,97227.38
2022-09-16T22:34:10.149Z,97225.56
2022-09-16T22:36:39.150Z,97226.25
2022-09-16T22:39:08.803Z,97215.78
2022-09-16T22:41:36.940Z,97219.47
2022-09-16T22:44:06.058Z,97219.13
2022-09-16T22:46:36.370Z,97216.34
2022-09-16T22:49:05.843Z,97216.47
2022-09-16T22:51:34.225Z,97214.88
2022-09-16T22:54:02.307Z,97220.06
2022-09-16T22:56:33.641Z,97217.06
2022-09-16T22:59:02.216Z,97209.13
2022-09-16T23:01:32.997Z,97216.94
2022-09-16T23:04:02.769Z,97212.69
2022-09-16T23:06:33.496Z,97214.41
2022-09-16T23:09:01.913Z,97219.25
2022-09-16T23:11:32.793Z,97210.16
2022-09-16T23:14:02.020Z,97218.88
2022-09-16T23:16:31.766Z,97212.22
2022-09-16T23:19:01.491Z,97203.34
2022-09-16T23:21:32.481Z,97200.50
2022-09-16T23:24:02.121Z,97197.63
2022-09-16T23:26:32.747Z,97190.38
2022-09-16T23:29:02.894Z,97188.53
2022-09-16T23:31:33.576Z,97187.59
2022-09-16T23:34:01.891Z,97195.19
2022-09-16T23:36:30.049Z,97190.72
2022-09-16T23:39:01.868Z,97191.97
2022-09-16T23:41:29.966Z,97189.78
2022-09-16T23:43:58.188Z,97194.50
2022-09-16T23:46:28.880Z,97196.13
2022-09-16T23:48:57.147Z,97197.16
2022-09-16T23:51:28.501Z,97199.69
2022-09-16T23:53:59.348Z,97207.16
2022-09-16T23:56:28.075Z,97200.72
2022-09-16T23:59:00.811Z,97196.56
